sensor_id;sensor_type;location;lat;lon;timestamp;P1;durP1;ratioP1;P2;durP2;ratioP2
15102;SDS011;7652;53.584;9.998;2024-02-16T00:01:21;5.00;;;3.60;;
15102;SDS011;7652;53.584;9.998;2024-02-16T00:04:43;4.33;;;2.90;;
15102;SDS011;7652;53.584;9.998;2024-02-16T00:08:04;5.03;;;3.40;;
15102;SDS011;7652;53.584;9.998;2024-02-16T00:11:26;6.83;;;3.53;;
15102;SDS011;7652;53.584;9.998;2024-02-16T00:14:50;5.43;;;3.40;;
15102;SDS011;7652;53.584;9.998;2024-02-16T00:18:11;4.17;;;3.20;;
15102;SDS011;7652;53.584;9.998;2024-02-16T00:21:33;5.87;;;3.50;;
15102;SDS011;7652;53.584;9.998;2024-02-16T00:24:55;4.40;;;3.00;;
15102;SDS011;7652;53.584;9.998;2024-02-16T00:28:16;5.87;;;3.37;;
15102;SDS011;7652;53.584;9.998;2024-02-16T00:31:39;4.20;;;3.43;;
15102;SDS011;7652;53.584;9.998;2024-02-16T00:35:01;7.77;;;3.37;;
15102;SDS011;7652;53.584;9.998;2024-02-16T00:38:23;6.73;;;3.70;;
15102;SDS011;7652;53.584;9.998;2024-02-16T00:41:44;7.70;;;3.63;;
15102;SDS011;7652;53.584;9.998;2024-02-16T00:45:07;4.70;;;3.20;;
15102;SDS011;7652;53.584;9.998;2024-02-16T00:48:30;4.63;;;3.60;;
15102;SDS011;7652;53.584;9.998;2024-02-16T00:51:52;3.97;;;3.40;;
15102;SDS011;7652;53.584;9.998;2024-02-16T00:55:18;4.83;;;3.30;;
15102;SDS011;7652;53.584;9.998;2024-02-16T00:58:40;5.23;;;2.90;;
15102;SDS011;7652;53.584;9.998;2024-02-16T01:02:02;4.23;;;3.00;;
15102;SDS011;7652;53.584;9.998;2024-02-16T01:05:26;5.07;;;2.97;;
15102;SDS011;7652;53.584;9.998;2024-02-16T01:08:47;4.07;;;3.00;;
15102;SDS011;7652;53.584;9.998;2024-02-16T01:12:08;4.40;;;3.00;;
15102;SDS011;7652;53.584;9.998;2024-02-16T01:15:30;4.27;;;2.77;;
15102;SDS011;7652;53.584;9.998;2024-02-16T01:18:51;4.93;;;3.00;;
15102;SDS011;7652;53.584;9.998;2024-02-16T01:22:15;3.80;;;2.80;;
15102;SDS011;7652;53.584;9.998;2024-02-16T01:25:38;5.93;;;2.53;;
15102;SDS011;7652;53.584;9.998;2024-02-16T01:28:59;5.00;;;2.90;;
15102;SDS011;7652;53.584;9.998;2024-02-16T01:32:22;3.17;;;2.60;;
15102;SDS011;7652;53.584;9.998;2024-02-16T01:35:43;4.77;;;3.00;;
15102;SDS011;7652;53.584;9.998;2024-02-16T01:39:07;5.57;;;3.20;;
15102;SDS011;7652;53.584;9.998;2024-02-16T01:42:28;3.47;;;3.17;;
15102;SDS011;7652;53.584;9.998;2024-02-16T01:45:51;3.23;;;2.80;;
15102;SDS011;7652;53.584;9.998;2024-02-16T01:49:12;3.83;;;3.03;;
15102;SDS011;7652;53.584;9.998;2024-02-16T01:52:35;5.87;;;3.17;;
15102;SDS011;7652;53.584;9.998;2024-02-16T01:55:58;4.43;;;2.43;;
15102;SDS011;7652;53.584;9.998;2024-02-16T01:59:20;3.67;;;2.87;;
15102;SDS011;7652;53.584;9.998;2024-02-16T02:02:43;3.63;;;2.70;;
15102;SDS011;7652;53.584;9.998;2024-02-16T02:06:06;4.43;;;2.70;;
15102;SDS011;7652;53.584;9.998;2024-02-16T02:09:28;5.67;;;2.80;;
15102;SDS011;7652;53.584;9.998;2024-02-16T02:12:50;2.90;;;2.60;;
15102;SDS011;7652;53.584;9.998;2024-02-16T02:16:12;3.37;;;2.57;;
15102;SDS011;7652;53.584;9.998;2024-02-16T02:19:35;3.23;;;2.80;;
15102;SDS011;7652;53.584;9.998;2024-02-16T02:22:58;5.23;;;2.70;;
15102;SDS011;7652;53.584;9.998;2024-02-16T02:26:20;3.80;;;3.10;;
15102;SDS011;7652;53.584;9.998;2024-02-16T02:29:42;5.70;;;2.90;;
15102;SDS011;7652;53.584;9.998;2024-02-16T02:33:04;4.37;;;2.67;;
15102;SDS011;7652;53.584;9.998;2024-02-16T02:36:25;2.63;;;2.23;;
15102;SDS011;7652;53.584;9.998;2024-02-16T02:39:49;4.60;;;2.80;;
15102;SDS011;7652;53.584;9.998;2024-02-16T02:43:10;4.50;;;2.87;;
15102;SDS011;7652;53.584;9.998;2024-02-16T02:46:32;6.03;;;2.80;;
15102;SDS011;7652;53.584;9.998;2024-02-16T02:49:53;3.97;;;2.80;;
15102;SDS011;7652;53.584;9.998;2024-02-16T02:53:15;5.07;;;3.07;;
15102;SDS011;7652;53.584;9.998;2024-02-16T02:56:40;4.83;;;2.67;;
15102;SDS011;7652;53.584;9.998;2024-02-16T03:00:04;3.23;;;2.67;;
15102;SDS011;7652;53.584;9.998;2024-02-16T03:03:30;4.00;;;2.87;;
15102;SDS011;7652;53.584;9.998;2024-02-16T03:06:53;3.90;;;2.80;;
15102;SDS011;7652;53.584;9.998;2024-02-16T03:10:15;4.83;;;2.63;;
15102;SDS011;7652;53.584;9.998;2024-02-16T03:13:43;4.97;;;2.73;;
15102;SDS011;7652;53.584;9.998;2024-02-16T03:17:04;5.40;;;2.93;;
15102;SDS011;7652;53.584;9.998;2024-02-16T03:20:25;3.73;;;2.30;;
15102;SDS011;7652;53.584;9.998;2024-02-16T03:23:47;4.50;;;2.63;;
15102;SDS011;7652;53.584;9.998;2024-02-16T03:27:08;4.50;;;2.60;;
15102;SDS011;7652;53.584;9.998;2024-02-16T03:30:32;6.63;;;2.80;;
15102;SDS011;7652;53.584;9.998;2024-02-16T03:33:54;5.90;;;2.97;;
15102;SDS011;7652;53.584;9.998;2024-02-16T03:37:16;5.40;;;2.63;;
15102;SDS011;7652;53.584;9.998;2024-02-16T03:40:38;4.27;;;2.67;;
15102;SDS011;7652;53.584;9.998;2024-02-16T03:43:59;3.70;;;2.40;;
15102;SDS011;7652;53.584;9.998;2024-02-16T03:47:22;3.40;;;2.40;;
15102;SDS011;7652;53.584;9.998;2024-02-16T03:50:44;4.47;;;2.23;;
15102;SDS011;7652;53.584;9.998;2024-02-16T03:54:06;3.60;;;2.43;;
15102;SDS011;7652;53.584;9.998;2024-02-16T03:57:27;3.47;;;2.57;;
15102;SDS011;7652;53.584;9.998;2024-02-16T04:00:51;5.03;;;2.37;;
15102;SDS011;7652;53.584;9.998;2024-02-16T04:04:15;3.00;;;2.53;;
15102;SDS011;7652;53.584;9.998;2024-02-16T04:07:37;5.43;;;2.40;;
15102;SDS011;7652;53.584;9.998;2024-02-16T04:10:58;3.93;;;2.30;;
15102;SDS011;7652;53.584;9.998;2024-02-16T04:14:20;2.37;;;2.10;;
15102;SDS011;7652;53.584;9.998;2024-02-16T04:17:41;4.03;;;2.33;;
15102;SDS011;7652;53.584;9.998;2024-02-16T04:21:05;4.83;;;2.30;;
15102;SDS011;7652;53.584;9.998;2024-02-16T04:24:26;3.03;;;2.30;;
15102;SDS011;7652;53.584;9.998;2024-02-16T04:27:48;2.93;;;1.90;;
15102;SDS011;7652;53.584;9.998;2024-02-16T04:31:10;4.30;;;2.40;;
15102;SDS011;7652;53.584;9.998;2024-02-16T04:34:32;5.53;;;2.17;;
15102;SDS011;7652;53.584;9.998;2024-02-16T04:37:55;2.10;;;1.90;;
15102;SDS011;7652;53.584;9.998;2024-02-16T04:41:19;3.63;;;2.20;;
15102;SDS011;7652;53.584;9.998;2024-02-16T04:44:41;3.70;;;2.20;;
15102;SDS011;7652;53.584;9.998;2024-02-16T04:48:03;3.70;;;2.37;;
15102;SDS011;7652;53.584;9.998;2024-02-16T04:51:25;5.83;;;2.13;;
15102;SDS011;7652;53.584;9.998;2024-02-16T04:54:49;2.70;;;2.03;;
15102;SDS011;7652;53.584;9.998;2024-02-16T04:58:10;2.83;;;2.23;;
15102;SDS011;7652;53.584;9.998;2024-02-16T05:01:32;4.63;;;2.27;;
15102;SDS011;7652;53.584;9.998;2024-02-16T05:04:54;4.77;;;2.10;;
15102;SDS011;7652;53.584;9.998;2024-02-16T05:08:17;4.47;;;2.13;;
15102;SDS011;7652;53.584;9.998;2024-02-16T05:11:40;5.80;;;2.40;;
15102;SDS011;7652;53.584;9.998;2024-02-16T05:15:01;4.10;;;2.30;;
15102;SDS011;7652;53.584;9.998;2024-02-16T05:18:23;2.70;;;2.20;;
15102;SDS011;7652;53.584;9.998;2024-02-16T05:21:45;3.23;;;2.03;;
15102;SDS011;7652;53.584;9.998;2024-02-16T05:25:08;3.67;;;1.93;;
15102;SDS011;7652;53.584;9.998;2024-02-16T05:28:31;4.93;;;2.00;;
15102;SDS011;7652;53.584;9.998;2024-02-16T05:31:53;3.20;;;2.00;;
15102;SDS011;7652;53.584;9.998;2024-02-16T05:35:15;4.30;;;2.57;;
15102;SDS011;7652;53.584;9.998;2024-02-16T05:38:38;2.23;;;1.80;;
15102;SDS011;7652;53.584;9.998;2024-02-16T05:42:03;3.97;;;2.43;;
15102;SDS011;7652;53.584;9.998;2024-02-16T05:45:26;3.40;;;2.03;;
15102;SDS011;7652;53.584;9.998;2024-02-16T05:48:48;3.13;;;2.30;;
15102;SDS011;7652;53.584;9.998;2024-02-16T05:52:10;2.90;;;2.23;;
15102;SDS011;7652;53.584;9.998;2024-02-16T05:55:40;3.67;;;2.30;;
15102;SDS011;7652;53.584;9.998;2024-02-16T05:59:04;3.23;;;2.10;;
15102;SDS011;7652;53.584;9.998;2024-02-16T06:02:27;3.67;;;2.17;;
15102;SDS011;7652;53.584;9.998;2024-02-16T06:05:48;3.30;;;2.00;;
15102;SDS011;7652;53.584;9.998;2024-02-16T06:09:10;2.90;;;2.00;;
15102;SDS011;7652;53.584;9.998;2024-02-16T06:12:32;7.20;;;2.47;;
15102;SDS011;7652;53.584;9.998;2024-02-16T06:15:54;3.47;;;2.50;;
15102;SDS011;7652;53.584;9.998;2024-02-16T06:19:18;3.77;;;2.03;;
15102;SDS011;7652;53.584;9.998;2024-02-16T06:22:40;3.33;;;2.13;;
15102;SDS011;7652;53.584;9.998;2024-02-16T06:26:01;2.63;;;2.10;;
15102;SDS011;7652;53.584;9.998;2024-02-16T06:29:23;3.37;;;2.30;;
15102;SDS011;7652;53.584;9.998;2024-02-16T06:32:45;3.30;;;2.17;;
15102;SDS011;7652;53.584;9.998;2024-02-16T06:36:08;2.73;;;1.90;;
15102;SDS011;7652;53.584;9.998;2024-02-16T06:39:30;5.40;;;2.17;;
15102;SDS011;7652;53.584;9.998;2024-02-16T06:42:52;3.47;;;2.10;;
15102;SDS011;7652;53.584;9.998;2024-02-16T06:46:14;4.30;;;2.03;;
15102;SDS011;7652;53.584;9.998;2024-02-16T06:49:36;3.93;;;1.93;;
15102;SDS011;7652;53.584;9.998;2024-02-16T06:52:59;3.20;;;2.00;;
15102;SDS011;7652;53.584;9.998;2024-02-16T06:56:20;2.73;;;2.00;;
15102;SDS011;7652;53.584;9.998;2024-02-16T06:59:42;3.90;;;2.37;;
15102;SDS011;7652;53.584;9.998;2024-02-16T07:03:04;4.47;;;2.20;;
15102;SDS011;7652;53.584;9.998;2024-02-16T07:06:26;3.07;;;2.40;;
15102;SDS011;7652;53.584;9.998;2024-02-16T07:09:49;4.67;;;2.60;;
15102;SDS011;7652;53.584;9.998;2024-02-16T07:13:11;4.07;;;2.43;;
15102;SDS011;7652;53.584;9.998;2024-02-16T07:16:32;6.03;;;2.23;;
15102;SDS011;7652;53.584;9.998;2024-02-16T07:19:54;5.67;;;2.27;;
15102;SDS011;7652;53.584;9.998;2024-02-16T07:23:15;5.83;;;2.20;;
15102;SDS011;7652;53.584;9.998;2024-02-16T07:26:39;4.17;;;2.23;;
15102;SDS011;7652;53.584;9.998;2024-02-16T07:30:00;7.37;;;2.80;;
15102;SDS011;7652;53.584;9.998;2024-02-16T07:33:21;3.73;;;2.50;;
15102;SDS011;7652;53.584;9.998;2024-02-16T07:36:44;3.30;;;2.33;;
15102;SDS011;7652;53.584;9.998;2024-02-16T07:40:06;4.47;;;2.20;;
15102;SDS011;7652;53.584;9.998;2024-02-16T07:43:31;3.23;;;2.30;;
15102;SDS011;7652;53.584;9.998;2024-02-16T07:46:52;6.77;;;2.30;;
15102;SDS011;7652;53.584;9.998;2024-02-16T07:50:17;3.00;;;1.90;;
15102;SDS011;7652;53.584;9.998;2024-02-16T07:53:40;3.90;;;2.37;;
15102;SDS011;7652;53.584;9.998;2024-02-16T07:57:04;3.13;;;1.80;;
15102;SDS011;7652;53.584;9.998;2024-02-16T08:00:27;2.77;;;1.80;;
15102;SDS011;7652;53.584;9.998;2024-02-16T08:03:49;2.57;;;2.00;;
15102;SDS011;7652;53.584;9.998;2024-02-16T08:07:11;4.63;;;2.30;;
15102;SDS011;7652;53.584;9.998;2024-02-16T08:10:33;3.90;;;2.40;;
15102;SDS011;7652;53.584;9.998;2024-02-16T08:13:55;5.07;;;2.40;;
15102;SDS011;7652;53.584;9.998;2024-02-16T08:17:21;4.73;;;2.40;;
15102;SDS011;7652;53.584;9.998;2024-02-16T08:20:43;5.23;;;2.00;;
15102;SDS011;7652;53.584;9.998;2024-02-16T08:24:05;4.97;;;1.63;;
15102;SDS011;7652;53.584;9.998;2024-02-16T08:27:27;5.30;;;2.40;;
15102;SDS011;7652;53.584;9.998;2024-02-16T08:30:48;5.10;;;1.90;;
15102;SDS011;7652;53.584;9.998;2024-02-16T08:34:11;3.87;;;1.70;;
15102;SDS011;7652;53.584;9.998;2024-02-16T08:37:32;2.20;;;1.70;;
15102;SDS011;7652;53.584;9.998;2024-02-16T08:40:54;3.37;;;2.03;;
15102;SDS011;7652;53.584;9.998;2024-02-16T08:44:16;3.37;;;2.10;;
15102;SDS011;7652;53.584;9.998;2024-02-16T08:47:38;3.00;;;2.23;;
15102;SDS011;7652;53.584;9.998;2024-02-16T08:51:02;5.03;;;1.70;;
15102;SDS011;7652;53.584;9.998;2024-02-16T08:54:24;2.40;;;2.00;;
15102;SDS011;7652;53.584;9.998;2024-02-16T08:57:46;2.80;;;1.90;;
15102;SDS011;7652;53.584;9.998;2024-02-16T09:01:08;5.37;;;2.30;;
15102;SDS011;7652;53.584;9.998;2024-02-16T09:04:29;3.37;;;2.23;;
15102;SDS011;7652;53.584;9.998;2024-02-16T09:07:53;5.63;;;2.47;;
15102;SDS011;7652;53.584;9.998;2024-02-16T09:11:14;3.67;;;2.30;;
15102;SDS011;7652;53.584;9.998;2024-02-16T09:14:37;3.47;;;2.10;;
15102;SDS011;7652;53.584;9.998;2024-02-16T09:17:58;4.40;;;2.27;;
15102;SDS011;7652;53.584;9.998;2024-02-16T09:21:20;4.57;;;1.80;;
15102;SDS011;7652;53.584;9.998;2024-02-16T09:24:45;2.03;;;1.80;;
15102;SDS011;7652;53.584;9.998;2024-02-16T09:28:08;3.60;;;1.80;;
15102;SDS011;7652;53.584;9.998;2024-02-16T09:31:39;4.33;;;1.83;;
15102;SDS011;7652;53.584;9.998;2024-02-16T09:35:01;2.13;;;1.80;;
15102;SDS011;7652;53.584;9.998;2024-02-16T09:38:23;2.73;;;2.20;;
15102;SDS011;7652;53.584;9.998;2024-02-16T09:41:48;3.80;;;1.73;;
15102;SDS011;7652;53.584;9.998;2024-02-16T09:45:12;2.80;;;1.90;;
15102;SDS011;7652;53.584;9.998;2024-02-16T09:48:36;2.37;;;1.80;;
15102;SDS011;7652;53.584;9.998;2024-02-16T09:52:01;4.23;;;1.87;;
15102;SDS011;7652;53.584;9.998;2024-02-16T09:55:24;2.33;;;1.60;;
15102;SDS011;7652;53.584;9.998;2024-02-16T09:58:47;3.57;;;1.40;;
15102;SDS011;7652;53.584;9.998;2024-02-16T10:02:11;3.30;;;1.67;;
15102;SDS011;7652;53.584;9.998;2024-02-16T10:05:33;4.97;;;1.90;;
15102;SDS011;7652;53.584;9.998;2024-02-16T10:08:55;3.23;;;1.90;;
15102;SDS011;7652;53.584;9.998;2024-02-16T10:12:18;3.17;;;1.67;;
15102;SDS011;7652;53.584;9.998;2024-02-16T10:15:41;3.97;;;1.83;;
15102;SDS011;7652;53.584;9.998;2024-02-16T10:19:04;2.77;;;1.60;;
15102;SDS011;7652;53.584;9.998;2024-02-16T10:22:26;3.80;;;2.00;;
15102;SDS011;7652;53.584;9.998;2024-02-16T10:25:48;2.70;;;1.90;;
15102;SDS011;7652;53.584;9.998;2024-02-16T10:29:10;2.93;;;2.13;;
15102;SDS011;7652;53.584;9.998;2024-02-16T10:32:34;3.43;;;1.70;;
15102;SDS011;7652;53.584;9.998;2024-02-16T10:35:57;2.37;;;1.60;;
15102;SDS011;7652;53.584;9.998;2024-02-16T10:39:22;2.10;;;1.67;;
15102;SDS011;7652;53.584;9.998;2024-02-16T10:42:45;3.70;;;2.07;;
15102;SDS011;7652;53.584;9.998;2024-02-16T10:46:07;3.57;;;2.27;;
15102;SDS011;7652;53.584;9.998;2024-02-16T10:49:33;2.03;;;1.70;;
15102;SDS011;7652;53.584;9.998;2024-02-16T10:52:55;4.10;;;2.00;;
15102;SDS011;7652;53.584;9.998;2024-02-16T10:56:26;2.23;;;1.77;;
15102;SDS011;7652;53.584;9.998;2024-02-16T10:59:52;4.33;;;2.00;;
15102;SDS011;7652;53.584;9.998;2024-02-16T11:03:16;3.07;;;1.70;;
15102;SDS011;7652;53.584;9.998;2024-02-16T11:06:46;6.30;;;1.97;;
15102;SDS011;7652;53.584;9.998;2024-02-16T11:10:11;1.93;;;1.70;;
15102;SDS011;7652;53.584;9.998;2024-02-16T11:13:34;1.57;;;1.43;;
15102;SDS011;7652;53.584;9.998;2024-02-16T11:16:57;4.10;;;1.77;;
15102;SDS011;7652;53.584;9.998;2024-02-16T11:20:19;4.00;;;1.67;;
15102;SDS011;7652;53.584;9.998;2024-02-16T11:23:42;2.73;;;1.63;;
15102;SDS011;7652;53.584;9.998;2024-02-16T11:27:05;3.20;;;1.90;;
15102;SDS011;7652;53.584;9.998;2024-02-16T11:30:28;2.60;;;1.87;;
15102;SDS011;7652;53.584;9.998;2024-02-16T11:33:53;5.43;;;1.87;;
15102;SDS011;7652;53.584;9.998;2024-02-16T11:37:14;4.50;;;1.50;;
15102;SDS011;7652;53.584;9.998;2024-02-16T11:40:39;2.90;;;1.83;;
15102;SDS011;7652;53.584;9.998;2024-02-16T11:44:00;3.40;;;1.70;;
15102;SDS011;7652;53.584;9.998;2024-02-16T11:47:23;5.93;;;2.10;;
15102;SDS011;7652;53.584;9.998;2024-02-16T11:50:49;3.03;;;1.90;;
15102;SDS011;7652;53.584;9.998;2024-02-16T11:54:22;3.77;;;2.10;;
15102;SDS011;7652;53.584;9.998;2024-02-16T11:57:45;5.43;;;2.10;;
15102;SDS011;7652;53.584;9.998;2024-02-16T12:01:10;1.63;;;1.53;;
15102;SDS011;7652;53.584;9.998;2024-02-16T12:04:32;4.07;;;2.63;;
15102;SDS011;7652;53.584;9.998;2024-02-16T12:08:06;2.30;;;1.97;;
15102;SDS011;7652;53.584;9.998;2024-02-16T12:11:28;3.60;;;1.70;;
15102;SDS011;7652;53.584;9.998;2024-02-16T12:14:51;4.60;;;2.37;;
15102;SDS011;7652;53.584;9.998;2024-02-16T12:18:20;4.80;;;2.40;;
15102;SDS011;7652;53.584;9.998;2024-02-16T12:21:42;4.63;;;2.50;;
15102;SDS011;7652;53.584;9.998;2024-02-16T12:25:04;3.57;;;2.13;;
15102;SDS011;7652;53.584;9.998;2024-02-16T12:28:26;2.57;;;2.20;;
15102;SDS011;7652;53.584;9.998;2024-02-16T12:31:50;3.10;;;2.00;;
15102;SDS011;7652;53.584;9.998;2024-02-16T12:35:11;4.57;;;2.13;;
15102;SDS011;7652;53.584;9.998;2024-02-16T12:38:33;3.83;;;2.13;;
15102;SDS011;7652;53.584;9.998;2024-02-16T12:41:55;3.50;;;2.40;;
15102;SDS011;7652;53.584;9.998;2024-02-16T12:45:17;2.97;;;2.40;;
15102;SDS011;7652;53.584;9.998;2024-02-16T12:48:40;4.77;;;2.50;;
15102;SDS011;7652;53.584;9.998;2024-02-16T12:52:04;5.73;;;2.37;;
15102;SDS011;7652;53.584;9.998;2024-02-16T12:55:25;5.40;;;2.63;;
15102;SDS011;7652;53.584;9.998;2024-02-16T12:58:47;4.90;;;2.37;;
15102;SDS011;7652;53.584;9.998;2024-02-16T13:02:09;3.63;;;2.40;;
15102;SDS011;7652;53.584;9.998;2024-02-16T13:05:32;5.00;;;2.40;;
15102;SDS011;7652;53.584;9.998;2024-02-16T13:08:54;3.70;;;2.33;;
15102;SDS011;7652;53.584;9.998;2024-02-16T13:12:16;4.70;;;2.60;;
15102;SDS011;7652;53.584;9.998;2024-02-16T13:15:39;3.37;;;2.53;;
15102;SDS011;7652;53.584;9.998;2024-02-16T13:19:01;2.97;;;2.33;;
15102;SDS011;7652;53.584;9.998;2024-02-16T13:22:24;3.40;;;2.83;;
15102;SDS011;7652;53.584;9.998;2024-02-16T13:25:46;5.40;;;2.80;;
15102;SDS011;7652;53.584;9.998;2024-02-16T13:29:08;7.30;;;3.10;;
15102;SDS011;7652;53.584;9.998;2024-02-16T13:32:29;3.73;;;2.63;;
15102;SDS011;7652;53.584;9.998;2024-02-16T13:35:50;4.03;;;2.50;;
15102;SDS011;7652;53.584;9.998;2024-02-16T13:39:13;4.47;;;2.60;;
15102;SDS011;7652;53.584;9.998;2024-02-16T13:42:36;4.67;;;3.00;;
15102;SDS011;7652;53.584;9.998;2024-02-16T13:45:57;5.60;;;2.60;;
15102;SDS011;7652;53.584;9.998;2024-02-16T13:49:20;5.87;;;2.70;;
15102;SDS011;7652;53.584;9.998;2024-02-16T13:52:41;4.97;;;3.20;;
15102;SDS011;7652;53.584;9.998;2024-02-16T13:56:05;5.43;;;3.27;;
15102;SDS011;7652;53.584;9.998;2024-02-16T13:59:26;3.73;;;2.87;;
15102;SDS011;7652;53.584;9.998;2024-02-16T14:02:49;4.73;;;2.80;;
15102;SDS011;7652;53.584;9.998;2024-02-16T14:06:11;6.17;;;2.97;;
15102;SDS011;7652;53.584;9.998;2024-02-16T14:09:33;4.03;;;2.83;;
15102;SDS011;7652;53.584;9.998;2024-02-16T14:12:56;4.87;;;3.13;;
15102;SDS011;7652;53.584;9.998;2024-02-16T14:16:17;7.33;;;3.30;;
15102;SDS011;7652;53.584;9.998;2024-02-16T14:19:39;4.17;;;3.00;;
15102;SDS011;7652;53.584;9.998;2024-02-16T14:23:01;6.60;;;3.20;;
15102;SDS011;7652;53.584;9.998;2024-02-16T14:26:23;3.67;;;2.80;;
15102;SDS011;7652;53.584;9.998;2024-02-16T14:29:46;3.83;;;2.93;;
15102;SDS011;7652;53.584;9.998;2024-02-16T14:33:08;3.83;;;3.00;;
15102;SDS011;7652;53.584;9.998;2024-02-16T14:36:30;4.37;;;3.20;;
15102;SDS011;7652;53.584;9.998;2024-02-16T14:39:51;5.43;;;3.30;;
15102;SDS011;7652;53.584;9.998;2024-02-16T14:43:16;3.20;;;2.80;;
15102;SDS011;7652;53.584;9.998;2024-02-16T14:46:39;7.00;;;3.00;;
15102;SDS011;7652;53.584;9.998;2024-02-16T14:50:00;5.53;;;3.80;;
15102;SDS011;7652;53.584;9.998;2024-02-16T14:53:24;6.63;;;3.87;;
15102;SDS011;7652;53.584;9.998;2024-02-16T14:56:45;4.17;;;3.77;;
15102;SDS011;7652;53.584;9.998;2024-02-16T15:00:10;5.23;;;3.87;;
15102;SDS011;7652;53.584;9.998;2024-02-16T15:03:34;8.53;;;4.27;;
15102;SDS011;7652;53.584;9.998;2024-02-16T15:06:56;5.23;;;4.20;;
15102;SDS011;7652;53.584;9.998;2024-02-16T15:10:18;5.77;;;4.23;;
15102;SDS011;7652;53.584;9.998;2024-02-16T15:13:39;6.60;;;4.17;;
15102;SDS011;7652;53.584;9.998;2024-02-16T15:17:03;7.80;;;4.80;;
15102;SDS011;7652;53.584;9.998;2024-02-16T15:20:27;8.70;;;4.70;;
15102;SDS011;7652;53.584;9.998;2024-02-16T15:23:50;6.93;;;5.67;;
15102;SDS011;7652;53.584;9.998;2024-02-16T15:27:11;7.80;;;5.63;;
15102;SDS011;7652;53.584;9.998;2024-02-16T15:30:33;6.40;;;5.57;;
15102;SDS011;7652;53.584;9.998;2024-02-16T15:33:54;6.90;;;5.20;;
15102;SDS011;7652;53.584;9.998;2024-02-16T15:37:18;6.13;;;5.13;;
15102;SDS011;7652;53.584;9.998;2024-02-16T15:40:40;6.10;;;5.53;;
15102;SDS011;7652;53.584;9.998;2024-02-16T15:44:03;7.37;;;5.20;;
15102;SDS011;7652;53.584;9.998;2024-02-16T15:47:24;6.67;;;5.03;;
15102;SDS011;7652;53.584;9.998;2024-02-16T15:50:46;7.60;;;4.90;;
15102;SDS011;7652;53.584;9.998;2024-02-16T15:54:14;6.17;;;5.53;;
15102;SDS011;7652;53.584;9.998;2024-02-16T15:57:35;6.27;;;4.70;;
15102;SDS011;7652;53.584;9.998;2024-02-16T16:00:57;6.57;;;4.93;;
15102;SDS011;7652;53.584;9.998;2024-02-16T16:04:18;6.53;;;4.97;;
15102;SDS011;7652;53.584;9.998;2024-02-16T16:07:40;5.30;;;4.80;;
15102;SDS011;7652;53.584;9.998;2024-02-16T16:11:05;6.53;;;4.67;;
15102;SDS011;7652;53.584;9.998;2024-02-16T16:14:26;5.83;;;4.27;;
15102;SDS011;7652;53.584;9.998;2024-02-16T16:17:48;3.67;;;3.30;;
15102;SDS011;7652;53.584;9.998;2024-02-16T16:21:09;3.77;;;3.40;;
15102;SDS011;7652;53.584;9.998;2024-02-16T16:24:30;3.40;;;3.10;;
15102;SDS011;7652;53.584;9.998;2024-02-16T16:27:53;3.57;;;3.27;;
15102;SDS011;7652;53.584;9.998;2024-02-16T16:31:15;3.53;;;3.20;;
15102;SDS011;7652;53.584;9.998;2024-02-16T16:34:36;3.20;;;2.90;;
15102;SDS011;7652;53.584;9.998;2024-02-16T16:37:59;3.60;;;3.00;;
15102;SDS011;7652;53.584;9.998;2024-02-16T16:41:21;2.87;;;2.67;;
15102;SDS011;7652;53.584;9.998;2024-02-16T16:44:44;3.57;;;3.23;;
15102;SDS011;7652;53.584;9.998;2024-02-16T16:48:07;3.60;;;3.30;;
15102;SDS011;7652;53.584;9.998;2024-02-16T16:51:29;3.80;;;3.30;;
15102;SDS011;7652;53.584;9.998;2024-02-16T16:54:51;3.53;;;3.23;;
15102;SDS011;7652;53.584;9.998;2024-02-16T16:58:12;3.57;;;3.27;;
15102;SDS011;7652;53.584;9.998;2024-02-16T17:01:35;3.20;;;3.00;;
15102;SDS011;7652;53.584;9.998;2024-02-16T17:04:57;2.53;;;2.40;;
15102;SDS011;7652;53.584;9.998;2024-02-16T17:08:19;2.30;;;2.10;;
15102;SDS011;7652;53.584;9.998;2024-02-16T17:11:40;1.80;;;1.70;;
15102;SDS011;7652;53.584;9.998;2024-02-16T17:15:02;1.60;;;1.50;;
15102;SDS011;7652;53.584;9.998;2024-02-16T17:18:25;1.70;;;1.60;;
15102;SDS011;7652;53.584;9.998;2024-02-16T17:21:48;2.30;;;1.27;;
15102;SDS011;7652;53.584;9.998;2024-02-16T17:25:10;1.10;;;1.00;;
15102;SDS011;7652;53.584;9.998;2024-02-16T17:28:32;1.20;;;1.10;;
15102;SDS011;7652;53.584;9.998;2024-02-16T17:31:55;1.93;;;1.40;;
15102;SDS011;7652;53.584;9.998;2024-02-16T17:35:18;1.27;;;1.17;;
15102;SDS011;7652;53.584;9.998;2024-02-16T17:38:40;1.73;;;1.20;;
15102;SDS011;7652;53.584;9.998;2024-02-16T17:42:01;1.77;;;1.40;;
15102;SDS011;7652;53.584;9.998;2024-02-16T17:45:23;1.67;;;1.57;;
15102;SDS011;7652;53.584;9.998;2024-02-16T17:48:45;1.17;;;1.17;;
15102;SDS011;7652;53.584;9.998;2024-02-16T17:52:09;1.70;;;1.60;;
15102;SDS011;7652;53.584;9.998;2024-02-16T17:55:31;1.97;;;1.80;;
15102;SDS011;7652;53.584;9.998;2024-02-16T17:58:54;1.70;;;1.60;;
15102;SDS011;7652;53.584;9.998;2024-02-16T18:02:16;1.70;;;1.60;;
15102;SDS011;7652;53.584;9.998;2024-02-16T18:05:57;1.53;;;1.43;;
15102;SDS011;7652;53.584;9.998;2024-02-16T18:09:20;1.93;;;1.47;;
15102;SDS011;7652;53.584;9.998;2024-02-16T18:12:41;1.50;;;1.40;;
15102;SDS011;7652;53.584;9.998;2024-02-16T18:16:04;1.13;;;1.03;;
15102;SDS011;7652;53.584;9.998;2024-02-16T18:19:25;2.23;;;1.20;;
15102;SDS011;7652;53.584;9.998;2024-02-16T18:22:47;2.33;;;1.30;;
15102;SDS011;7652;53.584;9.998;2024-02-16T18:26:10;1.63;;;1.53;;
15102;SDS011;7652;53.584;9.998;2024-02-16T18:29:33;2.33;;;1.77;;
15102;SDS011;7652;53.584;9.998;2024-02-16T18:32:55;1.60;;;1.50;;
15102;SDS011;7652;53.584;9.998;2024-02-16T18:36:17;1.40;;;1.30;;
15102;SDS011;7652;53.584;9.998;2024-02-16T18:39:38;1.30;;;1.20;;
15102;SDS011;7652;53.584;9.998;2024-02-16T18:43:03;1.77;;;1.67;;
15102;SDS011;7652;53.584;9.998;2024-02-16T18:46:26;1.60;;;1.40;;
15102;SDS011;7652;53.584;9.998;2024-02-16T18:49:48;1.60;;;1.40;;
15102;SDS011;7652;53.584;9.998;2024-02-16T18:53:12;1.57;;;1.43;;
15102;SDS011;7652;53.584;9.998;2024-02-16T18:56:34;1.67;;;1.50;;
15102;SDS011;7652;53.584;9.998;2024-02-16T18:59:56;1.50;;;1.40;;
15102;SDS011;7652;53.584;9.998;2024-02-16T19:03:18;1.80;;;1.70;;
15102;SDS011;7652;53.584;9.998;2024-02-16T19:06:39;2.53;;;1.70;;
15102;SDS011;7652;53.584;9.998;2024-02-16T19:10:02;1.50;;;1.40;;
15102;SDS011;7652;53.584;9.998;2024-02-16T19:13:24;1.80;;;1.70;;
15102;SDS011;7652;53.584;9.998;2024-02-16T19:16:47;2.07;;;1.70;;
15102;SDS011;7652;53.584;9.998;2024-02-16T19:20:09;2.07;;;1.87;;
15102;SDS011;7652;53.584;9.998;2024-02-16T19:23:32;2.10;;;1.90;;
15102;SDS011;7652;53.584;9.998;2024-02-16T19:26:53;2.80;;;1.93;;
15102;SDS011;7652;53.584;9.998;2024-02-16T19:30:15;2.23;;;1.80;;
15102;SDS011;7652;53.584;9.998;2024-02-16T19:33:39;2.40;;;2.20;;
15102;SDS011;7652;53.584;9.998;2024-02-16T19:37:01;2.47;;;2.33;;
15102;SDS011;7652;53.584;9.998;2024-02-16T19:40:23;2.93;;;2.73;;
15102;SDS011;7652;53.584;9.998;2024-02-16T19:43:45;2.73;;;2.57;;
15102;SDS011;7652;53.584;9.998;2024-02-16T19:47:07;3.00;;;2.70;;
15102;SDS011;7652;53.584;9.998;2024-02-16T19:50:30;3.60;;;3.30;;
15102;SDS011;7652;53.584;9.998;2024-02-16T19:53:51;3.37;;;3.17;;
15102;SDS011;7652;53.584;9.998;2024-02-16T19:57:12;3.83;;;3.53;;
15102;SDS011;7652;53.584;9.998;2024-02-16T20:00:34;4.50;;;4.10;;
15102;SDS011;7652;53.584;9.998;2024-02-16T20:03:55;4.20;;;3.80;;
15102;SDS011;7652;53.584;9.998;2024-02-16T20:07:19;4.67;;;4.27;;
15102;SDS011;7652;53.584;9.998;2024-02-16T20:10:43;4.73;;;4.33;;
15102;SDS011;7652;53.584;9.998;2024-02-16T20:14:05;4.73;;;4.33;;
15102;SDS011;7652;53.584;9.998;2024-02-16T20:17:26;5.10;;;4.60;;
15102;SDS011;7652;53.584;9.998;2024-02-16T20:20:48;6.93;;;4.60;;
15102;SDS011;7652;53.584;9.998;2024-02-16T20:24:11;5.60;;;5.00;;
15102;SDS011;7652;53.584;9.998;2024-02-16T20:27:33;5.03;;;4.63;;
15102;SDS011;7652;53.584;9.998;2024-02-16T20:30:54;5.83;;;5.30;;
15102;SDS011;7652;53.584;9.998;2024-02-16T20:34:23;6.43;;;5.20;;
15102;SDS011;7652;53.584;9.998;2024-02-16T20:37:45;6.37;;;5.67;;